createdAt,value
2018-07-08T00:01:08.835Z,99.10
2018-07-08T00:03:37.029Z,99.10
2018-07-08T00:06:05.265Z,99.10
2018-07-08T00:08:33.485Z,99.10
2018-07-08T00:11:01.688Z,99.20
2018-07-08T00:13:29.865Z,99.00
2018-07-08T00:15:58.058Z,98.80
2018-07-08T00:18:26.257Z,98.90
2018-07-08T00:23:24.152Z,98.70
2018-07-08T00:25:52.429Z,99.00
2018-07-08T00:28:20.904Z,99.10
2018-07-08T00:30:49.183Z,99.90
2018-07-08T00:33:17.358Z,99.90
2018-07-08T00:38:13.613Z,99.70
2018-07-08T00:40:41.838Z,99.50
2018-07-08T00:43:10.169Z,99.30
2018-07-08T00:45:38.380Z,99.10
2018-07-08T00:48:06.558Z,99.00
2018-07-08T00:50:34.760Z,98.90
2018-07-08T01:10:20.974Z,98.80
2018-07-08T01:12:49.184Z,99.10
2018-07-08T01:15:17.391Z,98.90
2018-07-08T01:17:45.626Z,99.10
2018-07-08T01:20:13.817Z,99.50
2018-07-08T01:22:42.012Z,99.20
2018-07-08T01:25:13.260Z,99.00
2018-07-08T01:27:41.469Z,99.00
2018-07-08T01:30:10.876Z,98.80
2018-07-08T01:32:39.101Z,99.60
2018-07-08T01:35:07.412Z,99.10
2018-07-08T01:37:35.612Z,99.20
2018-07-08T01:40:04.174Z,99.00
2018-07-08T01:42:32.364Z,98.80
2018-07-08T01:47:28.926Z,98.30
2018-07-08T01:49:57.080Z,98.90
2018-07-08T01:54:54.662Z,98.40
2018-07-08T01:59:51.950Z,98.40
2018-07-08T02:02:20.495Z,98.50
2018-07-08T02:04:49.095Z,98.20
2018-07-08T02:07:17.509Z,98.30
2018-07-08T02:09:45.794Z,98.10
2018-07-08T02:12:14.284Z,98.20
2018-07-08T02:14:42.509Z,98.40
2018-07-08T02:17:11.237Z,98.20
2018-07-08T02:19:39.481Z,98.10
2018-07-08T02:22:07.718Z,98.30
2018-07-08T02:24:35.948Z,97.90
2018-07-08T02:27:04.391Z,97.80
2018-07-08T02:29:33.300Z,98.20
2018-07-08T02:32:01.511Z,98.00
2018-07-08T02:34:29.734Z,98.10
2018-07-08T02:36:57.942Z,97.80
2018-07-08T02:39:26.162Z,98.00
2018-07-08T02:41:54.366Z,97.90
2018-07-08T02:44:22.607Z,97.80
2018-07-08T02:46:50.840Z,98.00
2018-07-08T02:49:19.969Z,98.20
2018-07-08T02:51:48.214Z,98.10
2018-07-08T02:54:16.428Z,98.20
2018-07-08T02:56:44.645Z,98.40
2018-07-08T02:59:12.909Z,98.00
2018-07-08T03:01:41.135Z,98.30
2018-07-08T03:04:09.376Z,98.30
2018-07-08T03:06:37.575Z,98.40
2018-07-08T03:09:06.718Z,98.30
2018-07-08T03:14:02.955Z,98.60
2018-07-08T03:16:31.215Z,98.80
2018-07-08T03:18:59.536Z,98.30
2018-07-08T03:23:55.702Z,98.90
2018-07-08T03:26:23.890Z,98.90
2018-07-08T03:28:52.124Z,98.60
2018-07-08T03:31:20.353Z,98.60
2018-07-08T03:33:48.582Z,98.60
2018-07-08T03:36:16.823Z,99.10
2018-07-08T03:38:45.115Z,98.80
2018-07-08T03:41:13.332Z,99.00
2018-07-08T03:43:41.540Z,99.00
2018-07-08T03:46:09.777Z,99.20
2018-07-08T03:48:38.398Z,99.20
2018-07-08T03:53:34.759Z,99.40
2018-07-08T03:56:02.976Z,99.00
2018-07-08T03:58:31.210Z,99.30
2018-07-08T04:03:27.439Z,99.20
2018-07-08T04:05:55.683Z,99.20
2018-07-08T04:08:23.894Z,99.40
2018-07-08T04:10:52.415Z,99.40
2018-07-08T04:15:48.623Z,98.90
2018-07-08T04:18:16.848Z,99.80
2018-07-08T04:20:45.068Z,99.40
2018-07-08T04:23:13.294Z,99.50
2018-07-08T04:25:41.521Z,99.60
2018-07-08T04:28:09.724Z,99.90
2018-07-08T04:30:37.957Z,99.80
2018-07-08T04:33:06.237Z,99.70
2018-07-08T04:35:34.448Z,99.60
2018-07-08T04:38:02.649Z,99.30
2018-07-08T04:40:30.860Z,99.20
2018-07-08T04:45:27.043Z,99.30
2018-07-08T04:47:55.276Z,98.90
2018-07-08T04:50:23.464Z,98.90
2018-07-08T04:52:51.673Z,98.90
2018-07-08T04:55:19.916Z,98.60
2018-07-08T04:57:48.127Z,98.60
2018-07-08T05:00:16.320Z,99.00
2018-07-08T05:02:44.569Z,98.60
2018-07-08T05:05:12.761Z,99.00
2018-07-08T05:10:08.942Z,99.00
2018-07-08T05:12:37.170Z,98.60
2018-07-08T05:15:05.464Z,98.90
2018-07-08T05:17:33.656Z,98.90
2018-07-08T05:22:29.826Z,99.00
2018-07-08T05:24:58.019Z,98.90
2018-07-08T05:27:26.259Z,99.10
2018-07-08T05:32:22.456Z,99.20
2018-07-08T05:34:50.668Z,99.30
2018-07-08T05:37:18.923Z,99.40
2018-07-08T05:39:47.133Z,98.80
2018-07-08T05:42:15.351Z,98.70
2018-07-08T05:44:43.574Z,98.50
2018-07-08T05:47:11.824Z,98.60
2018-07-08T05:49:40.046Z,98.40
2018-07-08T05:52:08.545Z,97.90
2018-07-08T05:54:36.844Z,98.00
2018-07-08T06:02:01.005Z,99.10
2018-07-08T06:04:29.231Z,98.50
2018-07-08T06:06:57.496Z,99.00
2018-07-08T06:09:25.739Z,98.80
2018-07-08T06:11:53.962Z,98.80
2018-07-08T06:14:22.211Z,98.50
2018-07-08T06:16:50.529Z,98.80
2018-07-08T06:19:18.712Z,99.00
2018-07-08T06:21:46.915Z,98.90
2018-07-08T06:26:43.378Z,98.50
2018-07-08T06:29:11.579Z,98.20
2018-07-08T06:31:39.814Z,97.90
2018-07-08T06:34:08.050Z,97.70
2018-07-08T06:36:36.358Z,97.90
2018-07-08T06:39:05.245Z,98.00
2018-07-08T06:41:33.468Z,97.20
2018-07-08T06:44:02.088Z,97.50
2018-07-08T06:46:30.298Z,96.40
2018-07-08T06:48:58.529Z,96.30
2018-07-08T06:51:26.722Z,96.20
2018-07-08T06:53:54.937Z,96.40
2018-07-08T06:56:23.141Z,96.30
2018-07-08T06:58:51.354Z,96.50
2018-07-08T07:01:19.585Z,96.30
2018-07-08T07:03:47.836Z,96.20
2018-07-08T07:06:16.020Z,95.90
2018-07-08T07:08:44.216Z,95.70
2018-07-08T07:11:12.431Z,95.50
2018-07-08T07:16:08.615Z,95.90
2018-07-08T07:18:36.818Z,95.00
2018-07-08T07:21:05.129Z,95.50
2018-07-08T07:23:33.340Z,94.90
2018-07-08T07:26:01.543Z,95.30
2018-07-08T07:28:29.778Z,95.40
2018-07-08T07:30:57.943Z,95.00
2018-07-08T07:33:26.136Z,95.10
2018-07-08T07:40:50.270Z,95.30
2018-07-08T07:43:18.485Z,94.70
2018-07-08T07:45:46.690Z,94.70
2018-07-08T07:48:14.938Z,93.90
2018-07-08T07:50:43.143Z,93.70
2018-07-08T07:53:11.332Z,94.10
2018-07-08T07:55:39.551Z,93.10
2018-07-08T07:58:07.777Z,93.70
2018-07-08T08:00:35.983Z,93.50
2018-07-08T08:03:04.204Z,93.00
2018-07-08T08:05:32.545Z,92.90
2018-07-08T08:08:00.736Z,92.90
2018-07-08T08:10:28.946Z,92.80
2018-07-08T08:12:57.118Z,92.50
2018-07-08T08:15:25.312Z,92.60
2018-07-08T08:17:53.511Z,93.00
2018-07-08T08:20:21.720Z,93.20
2018-07-08T08:22:50.012Z,92.70
2018-07-08T08:25:18.205Z,91.90
2018-07-08T08:27:46.395Z,91.90
2018-07-08T08:30:14.584Z,91.90
2018-07-08T08:32:42.855Z,91.90
2018-07-08T08:35:12.793Z,92.50
2018-07-08T08:37:46.148Z,91.70
2018-07-08T08:40:15.162Z,90.80
2018-07-08T08:42:43.370Z,90.80
2018-07-08T08:45:12.877Z,90.90
2018-07-08T08:47:41.114Z,90.80
2018-07-08T08:50:09.927Z,90.90
2018-07-08T08:52:38.160Z,90.70
2018-07-08T08:55:07.389Z,88.40
2018-07-08T08:57:35.601Z,88.30
2018-07-08T09:00:05.242Z,88.10
2018-07-08T09:02:33.442Z,85.00
2018-07-08T09:05:01.703Z,87.10
2018-07-08T09:07:29.909Z,87.60
2018-07-08T09:09:58.115Z,87.40
2018-07-08T09:12:26.345Z,86.80
2018-07-08T09:14:54.555Z,85.90
2018-07-08T09:17:22.863Z,86.70
2018-07-08T09:19:50.979Z,87.20
2018-07-08T09:22:19.215Z,86.40
2018-07-08T09:24:47.442Z,86.00
2018-07-08T09:27:15.643Z,86.30
2018-07-08T09:29:43.860Z,85.00
2018-07-08T09:32:12.103Z,86.20
2018-07-08T09:34:40.331Z,85.20
2018-07-08T09:37:08.525Z,83.70
2018-07-08T09:39:36.722Z,83.90
2018-07-08T09:42:04.948Z,83.90
2018-07-08T09:44:33.155Z,84.60
2018-07-08T09:47:01.354Z,83.10
2018-07-08T09:49:29.546Z,82.20
2018-07-08T09:51:57.796Z,81.30
2018-07-08T09:54:26.020Z,80.90
2018-07-08T09:56:54.279Z,82.40
2018-07-08T09:59:22.496Z,82.60
2018-07-08T10:01:50.915Z,80.70
2018-07-08T10:04:25.704Z,80.80
2018-07-08T10:06:54.501Z,81.10
2018-07-08T10:09:23.818Z,81.60
2018-07-08T10:11:52.433Z,82.70
2018-07-08T10:14:21.824Z,78.10
2018-07-08T10:16:50.045Z,79.50
2018-07-08T10:19:24.916Z,80.30
2018-07-08T10:21:53.001Z,80.10
2018-07-08T10:27:00.691Z,79.10
2018-07-08T10:29:28.960Z,77.80
2018-07-08T10:31:57.204Z,78.40
2018-07-08T10:34:25.434Z,78.90
2018-07-08T10:36:53.650Z,75.80
2018-07-08T10:39:21.900Z,75.70
2018-07-08T10:41:50.133Z,75.90
2018-07-08T10:44:18.351Z,76.10
2018-07-08T10:46:46.586Z,74.40
2018-07-08T10:49:14.876Z,76.10
2018-07-08T10:51:43.092Z,75.80
2018-07-08T10:54:11.306Z,74.30
2018-07-08T10:56:39.531Z,73.70
2018-07-08T10:59:07.787Z,74.10
2018-07-08T11:01:36.038Z,73.80
2018-07-08T11:04:04.306Z,75.10
2018-07-08T11:06:32.556Z,72.30
2018-07-08T11:09:00.760Z,72.40
2018-07-08T11:11:29.011Z,76.10
2018-07-08T11:13:57.215Z,75.10
2018-07-08T11:16:25.438Z,75.50
2018-07-08T11:18:53.671Z,77.30
2018-07-08T11:21:21.924Z,74.20
2018-07-08T11:23:50.133Z,73.30
2018-07-08T11:26:18.335Z,76.90
2018-07-08T11:31:14.546Z,72.80
2018-07-08T11:33:42.797Z,72.40
2018-07-08T11:36:11.020Z,73.20
2018-07-08T11:38:39.318Z,74.20
2018-07-08T11:41:07.538Z,75.40
2018-07-08T11:43:35.736Z,78.30
2018-07-08T11:46:03.970Z,74.10
2018-07-08T11:51:00.167Z,71.70
2018-07-08T11:53:28.397Z,74.40
2018-07-08T11:55:56.626Z,72.90
2018-07-08T11:58:24.868Z,74.10
2018-07-08T12:00:53.116Z,74.40
2018-07-08T12:03:21.332Z,74.90
2018-07-08T12:05:49.578Z,77.30
2018-07-08T12:08:17.820Z,75.80
2018-07-08T12:10:46.040Z,72.50
2018-07-08T12:13:20.831Z,73.60
2018-07-08T12:15:49.043Z,72.80
2018-07-08T12:18:17.264Z,72.80
2018-07-08T12:20:45.512Z,72.80
2018-07-08T12:23:13.753Z,73.00
2018-07-08T12:25:41.994Z,73.70
2018-07-08T12:30:38.207Z,70.80
2018-07-08T12:33:06.755Z,71.50
2018-07-08T12:35:34.960Z,71.90
2018-07-08T12:38:03.168Z,73.80
2018-07-08T12:40:31.428Z,72.00
2018-07-08T12:42:59.740Z,74.40
2018-07-08T12:45:27.962Z,69.60
2018-07-08T12:47:56.183Z,72.20
2018-07-08T12:50:24.414Z,71.00
2018-07-08T12:52:52.634Z,68.80
2018-07-08T12:55:20.872Z,68.60
2018-07-08T12:57:49.076Z,69.10
2018-07-08T13:00:17.285Z,69.70
2018-07-08T13:02:45.543Z,70.10
2018-07-08T13:05:13.776Z,68.40
2018-07-08T13:07:42.848Z,67.60
2018-07-08T13:10:11.105Z,68.90
2018-07-08T13:12:39.361Z,70.40
2018-07-08T13:15:07.565Z,71.50
2018-07-08T13:17:35.820Z,68.50
2018-07-08T13:20:04.411Z,67.70
2018-07-08T13:25:00.552Z,67.90
2018-07-08T13:27:28.781Z,67.60
2018-07-08T13:29:57.045Z,69.90
2018-07-08T13:32:25.307Z,68.90
2018-07-08T13:37:21.405Z,67.20
2018-07-08T13:39:49.705Z,65.20
2018-07-08T13:47:14.646Z,66.80
2018-07-08T13:49:42.871Z,66.90
2018-07-08T13:52:11.118Z,67.20
2018-07-08T13:54:39.329Z,67.60
2018-07-08T13:57:07.563Z,66.50
2018-07-08T13:59:35.781Z,65.60
2018-07-08T14:02:04.013Z,64.80
2018-07-08T14:04:32.227Z,65.30
2018-07-08T14:07:00.459Z,66.50
2018-07-08T14:09:28.749Z,67.30
2018-07-08T14:11:56.994Z,64.20
2018-07-08T14:14:25.223Z,66.90
2018-07-08T14:16:53.448Z,64.80
2018-07-08T14:19:21.671Z,70.20
2018-07-08T14:21:49.918Z,65.80
2018-07-08T14:24:18.113Z,65.70
2018-07-08T14:26:46.433Z,65.80
2018-07-08T14:34:11.274Z,66.60
2018-07-08T14:36:39.534Z,68.90
2018-07-08T14:39:08.356Z,65.30
2018-07-08T14:41:36.685Z,67.30
2018-07-08T14:44:04.935Z,63.00
2018-07-08T14:46:33.403Z,66.30
2018-07-08T14:51:29.688Z,65.20
2018-07-08T14:53:57.910Z,64.30
2018-07-08T14:56:26.153Z,63.60
2018-07-08T14:58:54.363Z,65.60
2018-07-08T15:01:23.292Z,67.90
2018-07-08T15:03:51.899Z,67.30
2018-07-08T15:06:20.124Z,65.20
2018-07-08T15:08:48.354Z,63.10
2018-07-08T15:11:16.568Z,64.60
2018-07-08T15:13:44.832Z,65.90
2018-07-08T15:16:13.157Z,65.20
2018-07-08T15:18:41.271Z,62.10
2018-07-08T15:21:09.540Z,64.50
2018-07-08T15:23:37.755Z,64.90
2018-07-08T15:26:05.971Z,64.80
2018-07-08T15:28:34.219Z,64.90
2018-07-08T15:31:02.431Z,65.40
2018-07-08T15:33:30.690Z,63.50
2018-07-08T15:35:58.881Z,65.50
2018-07-08T15:38:27.101Z,63.90
2018-07-08T15:45:51.266Z,64.60
2018-07-08T15:48:19.528Z,64.60
2018-07-08T15:50:47.726Z,64.40
2018-07-08T15:53:15.967Z,66.60
2018-07-08T15:58:12.550Z,64.80
2018-07-08T16:00:40.764Z,66.00
2018-07-08T16:03:08.981Z,67.10
2018-07-08T16:08:05.233Z,66.30
2018-07-08T16:10:33.488Z,66.60
2018-07-08T16:13:01.704Z,64.00
2018-07-08T16:15:29.967Z,66.00
2018-07-08T16:17:58.228Z,66.70
2018-07-08T16:20:26.376Z,65.60
2018-07-08T16:22:54.604Z,65.60
2018-07-08T16:25:29.419Z,67.10
2018-07-08T16:27:57.680Z,66.90
2018-07-08T16:30:25.946Z,64.20
2018-07-08T16:32:54.283Z,64.50
2018-07-08T16:35:22.899Z,63.20
2018-07-08T16:37:51.136Z,66.20
2018-07-08T16:40:19.375Z,63.90
2018-07-08T16:42:47.577Z,65.50
2018-07-08T16:45:15.792Z,64.90
2018-07-08T16:47:44.176Z,65.10
2018-07-08T16:50:12.509Z,65.50
2018-07-08T16:52:40.747Z,66.20
2018-07-08T17:02:33.408Z,67.30
2018-07-08T17:05:01.523Z,67.80
2018-07-08T17:07:29.735Z,66.40
2018-07-08T17:09:57.965Z,65.70
2018-07-08T17:12:26.135Z,66.70
2018-07-08T17:14:54.334Z,66.80
2018-07-08T17:17:22.567Z,66.80
2018-07-08T17:19:50.803Z,66.10
2018-07-08T17:22:19.055Z,65.40
2018-07-08T17:24:47.258Z,65.80
2018-07-08T17:27:15.480Z,65.60
2018-07-08T17:29:43.691Z,66.70
2018-07-08T17:32:12.221Z,66.50
2018-07-08T17:37:08.350Z,67.70
2018-07-08T17:39:36.551Z,67.70
2018-07-08T17:42:04.812Z,69.20
2018-07-08T17:44:33.002Z,69.70
2018-07-08T17:47:01.233Z,69.50
2018-07-08T17:49:29.471Z,69.70
2018-07-08T17:51:57.714Z,70.70
2018-07-08T17:54:25.962Z,70.60
2018-07-08T17:56:54.198Z,70.80
2018-07-08T17:59:22.404Z,69.10
2018-07-08T18:04:18.611Z,69.10
2018-07-08T18:06:46.852Z,69.80
2018-07-08T18:09:15.073Z,69.10
2018-07-08T18:11:43.788Z,69.60
2018-07-08T18:14:12.167Z,70.80
2018-07-08T18:16:40.270Z,70.10
2018-07-08T18:19:08.545Z,70.50
2018-07-08T18:21:36.829Z,70.80
2018-07-08T18:26:33.044Z,72.60
2018-07-08T18:29:01.267Z,72.50
2018-07-08T18:31:29.579Z,72.40
2018-07-08T18:33:57.718Z,72.30
2018-07-08T18:38:53.957Z,73.10
2018-07-08T18:41:22.191Z,73.30
2018-07-08T18:43:50.410Z,73.70
2018-07-08T18:46:18.710Z,74.40
2018-07-08T18:48:46.853Z,74.80
2018-07-08T18:51:15.076Z,75.10
2018-07-08T18:56:11.300Z,76.40
2018-07-08T18:58:39.535Z,76.00
2018-07-08T19:01:07.759Z,77.10
2018-07-08T19:03:36.025Z,77.80
2018-07-08T19:06:04.306Z,77.40
2018-07-08T19:08:32.538Z,77.80
2018-07-08T19:11:00.801Z,78.20
2018-07-08T19:13:29.081Z,76.80
2018-07-08T19:15:57.295Z,77.30
2018-07-08T19:18:25.564Z,77.30
2018-07-08T19:20:53.791Z,78.60
2018-07-08T19:23:22.072Z,79.60
2018-07-08T19:25:50.319Z,81.30
2018-07-08T19:28:18.569Z,79.30
2018-07-08T19:30:46.808Z,80.30
2018-07-08T19:33:15.069Z,80.30
2018-07-08T19:35:43.336Z,81.00
2018-07-08T19:38:11.554Z,80.70
2018-07-08T19:40:39.781Z,79.40
2018-07-08T19:43:08.027Z,80.90
2018-07-08T19:45:36.520Z,81.10
2018-07-08T19:48:05.189Z,80.30
2018-07-08T19:50:33.396Z,79.30
2018-07-08T19:53:01.642Z,82.10
2018-07-08T19:55:29.875Z,81.60
2018-07-08T19:57:58.125Z,82.30
2018-07-08T20:00:26.364Z,82.30
2018-07-08T20:02:54.545Z,82.90
2018-07-08T20:05:22.816Z,83.90
2018-07-08T20:07:51.037Z,83.60
2018-07-08T20:10:19.210Z,83.20
2018-07-08T20:12:47.456Z,83.10
2018-07-08T20:15:15.669Z,84.70
2018-07-08T20:17:43.901Z,83.70
2018-07-08T20:20:12.175Z,84.20
2018-07-08T20:22:40.445Z,82.60
2018-07-08T20:25:09.333Z,81.90
2018-07-08T20:27:37.828Z,81.10
2018-07-08T20:30:06.057Z,80.40
2018-07-08T20:32:34.278Z,81.20
2018-07-08T20:35:02.489Z,81.10
2018-07-08T20:37:30.781Z,80.80
2018-07-08T20:39:58.972Z,80.60
2018-07-08T20:42:27.286Z,82.20
2018-07-08T20:44:55.528Z,84.30
2018-07-08T20:47:23.924Z,86.40
2018-07-08T20:49:52.218Z,85.90
2018-07-08T20:52:20.632Z,87.40
2018-07-08T20:54:49.283Z,88.10
2018-07-08T20:59:45.684Z,89.20
2018-07-08T21:02:13.894Z,88.20
2018-07-08T21:04:43.049Z,87.10
2018-07-08T21:07:11.236Z,87.50
2018-07-08T21:12:07.467Z,89.30
2018-07-08T21:14:35.679Z,86.40
2018-07-08T21:17:03.910Z,87.10
2018-07-08T21:19:32.113Z,86.70
2018-07-08T21:22:00.331Z,88.90
2018-07-08T21:24:28.552Z,89.50
2018-07-08T21:26:56.770Z,90.40
2018-07-08T21:29:25.294Z,88.50
2018-07-08T21:31:53.518Z,86.70
2018-07-08T21:34:21.753Z,88.80
2018-07-08T21:36:50.006Z,88.80
2018-07-08T21:39:18.178Z,89.10
2018-07-08T21:44:14.349Z,90.00
2018-07-08T21:46:42.561Z,89.10
2018-07-08T21:49:10.798Z,88.10
2018-07-08T21:51:39.010Z,89.20
2018-07-08T21:54:07.211Z,89.10
2018-07-08T21:56:35.471Z,89.50
2018-07-08T21:59:03.676Z,88.50
2018-07-08T22:01:47.285Z,88.70
2018-07-08T22:04:15.524Z,88.90
2018-07-08T22:06:43.722Z,90.10
2018-07-08T22:09:11.935Z,89.10
2018-07-08T22:11:40.456Z,89.10
2018-07-08T22:14:08.637Z,88.90
2018-07-08T22:16:36.840Z,89.70
2018-07-08T22:19:05.398Z,90.00
2018-07-08T22:21:33.641Z,90.10
2018-07-08T22:24:01.880Z,90.70
2018-07-08T22:26:30.081Z,90.70
2018-07-08T22:28:58.284Z,90.70
2018-07-08T22:31:26.524Z,90.20
2018-07-08T22:33:54.772Z,90.20
2018-07-08T22:36:23.014Z,90.80
2018-07-08T22:38:51.245Z,90.90
2018-07-08T22:41:19.507Z,90.70
2018-07-08T22:43:47.745Z,91.10
2018-07-08T22:46:15.948Z,91.60
2018-07-08T22:48:44.160Z,91.30
2018-07-08T22:51:12.358Z,91.30
2018-07-08T22:53:40.598Z,91.10
2018-07-08T22:56:08.798Z,91.00
2018-07-08T22:58:37.009Z,91.70
2018-07-08T23:02:16.447Z,91.60
2018-07-08T23:04:44.684Z,91.50
2018-07-08T23:07:12.903Z,91.30
2018-07-08T23:09:41.103Z,91.60
2018-07-08T23:12:09.288Z,91.90
2018-07-08T23:14:37.496Z,92.10
2018-07-08T23:17:05.766Z,92.80
2018-07-08T23:19:33.979Z,92.00
2018-07-08T23:22:02.217Z,92.00
2018-07-08T23:24:30.420Z,91.90
2018-07-08T23:26:58.633Z,92.00
2018-07-08T23:29:26.833Z,92.30
2018-07-08T23:31:54.998Z,92.60
2018-07-08T23:34:23.180Z,92.40
2018-07-08T23:36:51.370Z,92.70
2018-07-08T23:39:19.595Z,92.40
2018-07-08T23:41:47.796Z,92.00
2018-07-08T23:44:15.983Z,92.70
2018-07-08T23:46:44.187Z,93.00
2018-07-08T23:49:12.388Z,92.60
2018-07-08T23:54:08.544Z,93.00
2018-07-08T23:56:36.862Z,93.10
2018-07-08T23:59:05.068Z,92.90
